createdAt,value
2022-12-25T00:01:38.877Z,100158.34
2022-12-25T00:04:05.484Z,100147.50
2022-12-25T00:06:31.931Z,100147.50
2022-12-25T00:08:58.368Z,100148.50
2022-12-25T00:11:24.730Z,100145.56
2022-12-25T00:13:51.255Z,100136.94
2022-12-25T00:16:20.622Z,100138.31
2022-12-25T00:18:47.913Z,100152.25
2022-12-25T00:21:15.286Z,100150.59
2022-12-25T00:23:41.994Z,100152.50
2022-12-25T00:26:11.311Z,100162.25
2022-12-25T00:28:37.788Z,100164.16
2022-12-25T00:31:08.965Z,100156.50
2022-12-25T00:33:40.576Z,100159.66
2022-12-25T00:36:08.047Z,100163.53
2022-12-25T00:38:36.180Z,100161.56
2022-12-25T00:41:11.749Z,100166.31
2022-12-25T00:43:38.553Z,100177.41
2022-12-25T00:46:06.652Z,100176.56
2022-12-25T00:48:34.651Z,100168.75
2022-12-25T00:51:04.660Z,100154.63
2022-12-25T00:53:31.499Z,100147.66
2022-12-25T00:56:03.742Z,100154.03
2022-12-25T00:58:32.225Z,100152.06
2022-12-25T01:00:58.926Z,100154.13
2022-12-25T01:03:26.371Z,100155.09
2022-12-25T01:05:58.906Z,100156.59
2022-12-25T01:08:26.136Z,100168.88
2022-12-25T01:11:18.822Z,100166.69
2022-12-25T01:13:45.178Z,100163.69
2022-12-25T01:16:11.832Z,100164.31
2022-12-25T01:18:38.799Z,100166.38
2022-12-25T01:21:09.862Z,100167.47
2022-12-25T01:23:36.729Z,100162.44
2022-12-25T01:26:07.926Z,100163.78
2022-12-25T01:28:35.562Z,100153.44
2022-12-25T01:31:02.621Z,100161.41
2022-12-25T01:33:29.079Z,100165.16
2022-12-25T01:35:55.777Z,100162.50
2022-12-25T01:38:22.180Z,100174.03
2022-12-25T01:40:48.611Z,100189.28
2022-12-25T01:43:22.880Z,100193.94
2022-12-25T01:45:52.462Z,100195.63
2022-12-25T01:48:25.810Z,100208.81
2022-12-25T01:51:01.689Z,100201.94
2022-12-25T01:53:27.956Z,100205.50
2022-12-25T01:55:58.979Z,100195.19
2022-12-25T01:58:25.790Z,100195.19
2022-12-25T02:00:52.276Z,100204.31
2022-12-25T02:03:20.740Z,100197.34
2022-12-25T02:05:47.991Z,100198.06
2022-12-25T02:08:18.317Z,100203.13
2022-12-25T02:10:44.964Z,100199.09
2022-12-25T02:13:13.999Z,100195.03
2022-12-25T02:15:50.477Z,100194.56
2022-12-25T02:18:16.963Z,100202.38
2022-12-25T02:21:04.601Z,100208.13
2022-12-25T02:23:57.772Z,100208.16
2022-12-25T02:26:50.622Z,100209.75
2022-12-25T02:29:33.777Z,100207.59
2022-12-25T02:32:13.017Z,100201.00
2022-12-25T02:34:51.106Z,100213.09
2022-12-25T02:37:29.223Z,100217.66
2022-12-25T02:40:01.098Z,100214.78
2022-12-25T02:43:07.678Z,100211.44
2022-12-25T02:46:10.614Z,100207.59
2022-12-25T02:49:00.192Z,100203.06
2022-12-25T02:51:47.875Z,100203.88
2022-12-25T02:54:37.961Z,100218.13
2022-12-25T02:57:27.196Z,100219.34
2022-12-25T03:00:14.598Z,100231.28
2022-12-25T03:03:02.114Z,100229.34
2022-12-25T03:05:50.197Z,100226.25
2022-12-25T03:08:21.840Z,100216.81
2022-12-25T03:11:21.574Z,100222.91
2022-12-25T03:13:52.963Z,100216.66
2022-12-25T03:16:39.331Z,100208.31
2022-12-25T03:19:25.804Z,100211.38
2022-12-25T03:22:13.264Z,100208.88
2022-12-25T03:24:59.631Z,100208.06
2022-12-25T03:27:29.131Z,100204.34
2022-12-25T03:30:14.282Z,100203.50
2022-12-25T03:32:58.987Z,100219.28
2022-12-25T03:36:03.263Z,100213.16
2022-12-25T03:38:51.606Z,100207.28
2022-12-25T03:41:36.367Z,100215.09
2022-12-25T03:44:45.922Z,100214.25
2022-12-25T03:47:46.349Z,100217.81
2022-12-25T03:50:40.131Z,100219.28
2022-12-25T03:53:40.599Z,100226.53
2022-12-25T03:56:27.055Z,100233.81
2022-12-25T03:59:21.088Z,100231.78
2022-12-25T04:02:09.396Z,100243.38
2022-12-25T04:04:54.547Z,100251.03
2022-12-25T04:07:39.619Z,100246.50
2022-12-25T04:10:25.213Z,100249.47
2022-12-25T04:13:10.248Z,100264.41
2022-12-25T04:15:55.158Z,100258.75
2022-12-25T04:18:40.569Z,100258.59
2022-12-25T04:21:26.109Z,100263.22
2022-12-25T04:24:10.888Z,100260.59
2022-12-25T04:26:55.834Z,100254.63
2022-12-25T04:29:40.555Z,100257.81
2022-12-25T04:32:25.302Z,100242.06
2022-12-25T04:35:10.542Z,100249.22
2022-12-25T04:37:36.953Z,100241.56
2022-12-25T04:40:03.865Z,100246.50
2022-12-25T04:42:30.216Z,100252.44
2022-12-25T04:44:56.656Z,100245.53
2022-12-25T04:47:22.996Z,100241.72
2022-12-25T04:49:50.469Z,100240.50
2022-12-25T04:52:17.057Z,100253.31
2022-12-25T04:54:43.411Z,100256.56
2022-12-25T04:57:09.819Z,100262.34
2022-12-25T04:59:36.178Z,100256.41
2022-12-25T05:02:02.698Z,100263.00
2022-12-25T05:04:29.302Z,100268.56
2022-12-25T05:06:55.867Z,100263.31
2022-12-25T05:09:22.390Z,100273.22
2022-12-25T05:11:48.734Z,100275.00
2022-12-25T05:14:15.337Z,100265.75
2022-12-25T05:16:42.001Z,100271.09
2022-12-25T05:19:09.309Z,100273.34
2022-12-25T05:21:35.798Z,100277.09
2022-12-25T05:24:02.402Z,100268.47
2022-12-25T05:26:28.795Z,100269.34
2022-12-25T05:28:55.502Z,100271.25
2022-12-25T05:31:22.447Z,100275.03
2022-12-25T05:33:50.678Z,100263.88
2022-12-25T05:36:17.564Z,100261.25
2022-12-25T05:38:44.116Z,100265.59
2022-12-25T05:41:10.455Z,100266.63
2022-12-25T05:43:36.829Z,100269.34
2022-12-25T05:46:08.096Z,100268.97
2022-12-25T05:48:37.211Z,100268.13
2022-12-25T05:51:12.666Z,100278.00
2022-12-25T05:53:39.868Z,100275.16
2022-12-25T05:56:07.418Z,100270.00
2022-12-25T05:58:35.554Z,100270.63
2022-12-25T06:01:02.766Z,100281.16
2022-12-25T06:03:29.431Z,100267.50
2022-12-25T06:05:55.923Z,100271.81
2022-12-25T06:08:22.319Z,100264.38
2022-12-25T06:10:48.743Z,100263.50
2022-12-25T06:13:15.231Z,100257.44
2022-12-25T06:15:41.977Z,100256.72
2022-12-25T06:18:08.783Z,100258.59
2022-12-25T06:20:35.795Z,100272.47
2022-12-25T06:23:02.238Z,100254.31
2022-12-25T06:25:28.759Z,100269.19
2022-12-25T06:27:55.130Z,100258.91
2022-12-25T06:30:21.534Z,100254.53
2022-12-25T06:32:47.906Z,100245.28
2022-12-25T06:35:14.591Z,100242.94
2022-12-25T06:37:41.110Z,100232.06
2022-12-25T06:40:08.094Z,100247.78
2022-12-25T06:42:34.891Z,100255.88
2022-12-25T06:45:01.232Z,100261.44
2022-12-25T06:47:27.600Z,100270.66
2022-12-25T06:49:54.021Z,100272.56
2022-12-25T06:52:20.362Z,100269.19
2022-12-25T06:54:47.181Z,100261.66
2022-12-25T06:57:13.657Z,100260.38
2022-12-25T06:59:40.080Z,100269.00
2022-12-25T07:02:17.089Z,100273.19
2022-12-25T07:04:43.677Z,100267.09
2022-12-25T07:07:10.368Z,100267.31
2022-12-25T07:09:39.172Z,100268.56
2022-12-25T07:12:17.973Z,100259.22
2022-12-25T07:14:48.622Z,100261.84
2022-12-25T07:17:16.181Z,100263.34
2022-12-25T07:19:45.124Z,100274.44
2022-12-25T07:22:12.164Z,100273.69
2022-12-25T07:24:38.585Z,100286.41
2022-12-25T07:27:04.950Z,100287.25
2022-12-25T07:29:31.360Z,100297.84
2022-12-25T07:31:58.212Z,100304.03
2022-12-25T07:34:24.673Z,100297.75
2022-12-25T07:36:51.024Z,100302.78
2022-12-25T07:39:17.803Z,100296.59
2022-12-25T07:41:44.443Z,100278.13
2022-12-25T07:44:11.030Z,100282.63
2022-12-25T07:46:37.437Z,100292.72
2022-12-25T07:49:03.899Z,100286.19
2022-12-25T07:51:30.469Z,100296.16
2022-12-25T07:53:57.152Z,100302.34
2022-12-25T07:56:23.579Z,100304.03
2022-12-25T07:58:50.216Z,100304.22
2022-12-25T08:01:21.158Z,100314.63
2022-12-25T08:03:56.038Z,100307.81
2022-12-25T08:06:24.898Z,100311.47
2022-12-25T08:08:51.301Z,100310.75
2022-12-25T08:11:17.935Z,100317.47
2022-12-25T08:13:44.379Z,100316.63
2022-12-25T08:16:11.144Z,100313.47
2022-12-25T08:18:39.085Z,100309.72
2022-12-25T08:21:08.377Z,100308.75
2022-12-25T08:23:37.963Z,100303.59
2022-12-25T08:26:05.987Z,100301.06
2022-12-25T08:28:32.988Z,100305.69
2022-12-25T08:30:59.379Z,100305.91
2022-12-25T08:33:25.803Z,100306.53
2022-12-25T08:35:52.194Z,100318.94
2022-12-25T08:38:18.625Z,100321.63
2022-12-25T08:40:45.225Z,100316.16
2022-12-25T08:43:11.744Z,100314.28
2022-12-25T08:45:38.160Z,100300.84
2022-12-25T08:48:04.576Z,100314.03
2022-12-25T08:50:31.172Z,100297.22
2022-12-25T08:52:57.542Z,100290.31
2022-12-25T08:55:23.968Z,100280.44
2022-12-25T08:57:53.106Z,100281.25
2022-12-25T09:00:19.844Z,100274.94
2022-12-25T09:02:46.387Z,100272.22
2022-12-25T09:05:12.828Z,100274.63
2022-12-25T09:07:39.220Z,100270.09
2022-12-25T09:10:06.322Z,100273.00
2022-12-25T09:12:32.699Z,100273.97
2022-12-25T09:14:59.378Z,100265.41
2022-12-25T09:17:26.052Z,100264.91
2022-12-25T09:19:52.460Z,100262.78
2022-12-25T09:22:19.309Z,100252.78
2022-12-25T09:24:45.671Z,100256.56
2022-12-25T09:27:12.283Z,100250.25
2022-12-25T09:29:39.113Z,100243.28
2022-12-25T09:32:06.869Z,100229.41
2022-12-25T09:34:33.256Z,100218.88
2022-12-25T09:36:59.990Z,100222.47
2022-12-25T09:39:26.764Z,100222.47
2022-12-25T09:42:01.641Z,100215.09
2022-12-25T09:44:36.859Z,100206.59
2022-12-25T09:47:08.235Z,100203.75
2022-12-25T09:49:57.577Z,100205.31
2022-12-25T09:52:33.073Z,100201.25
2022-12-25T09:55:12.466Z,100206.03
2022-12-25T09:57:42.992Z,100192.56
2022-12-25T10:00:18.215Z,100192.78
2022-12-25T10:03:13.472Z,100184.69
2022-12-25T10:06:04.618Z,100185.31
2022-12-25T10:08:49.635Z,100196.06
2022-12-25T10:11:38.509Z,100212.09
2022-12-25T10:14:07.586Z,100212.00
2022-12-25T10:17:15.677Z,100211.03
2022-12-25T10:20:12.360Z,100209.72
2022-12-25T10:22:44.062Z,100203.28
2022-12-25T10:25:19.769Z,100183.69
2022-12-25T10:27:51.657Z,100187.50
2022-12-25T10:30:23.830Z,100196.59
2022-12-25T10:32:51.584Z,100185.81
2022-12-25T10:35:21.187Z,100181.28
2022-12-25T10:37:59.531Z,100167.91
2022-12-25T10:40:42.640Z,100164.06
2022-12-25T10:43:15.404Z,100178.41
2022-12-25T10:45:49.812Z,100171.13
2022-12-25T10:48:34.514Z,100162.63
2022-12-25T10:51:01.022Z,100168.59
2022-12-25T10:53:29.043Z,100175.28
2022-12-25T10:56:00.339Z,100184.97
2022-12-25T10:58:27.949Z,100164.50
2022-12-25T11:01:14.008Z,100161.78
2022-12-25T11:03:45.715Z,100155.19
2022-12-25T11:06:32.184Z,100152.25
2022-12-25T11:09:01.472Z,100153.44
2022-12-25T11:11:29.399Z,100145.75
2022-12-25T11:14:00.972Z,100137.59
2022-12-25T11:16:35.238Z,100148.34
2022-12-25T11:19:02.492Z,100164.50
2022-12-25T11:21:31.494Z,100160.44
2022-12-25T11:24:03.706Z,100163.22
2022-12-25T11:26:36.518Z,100164.78
2022-12-25T11:29:03.692Z,100159.25
2022-12-25T11:31:37.701Z,100149.31
2022-12-25T11:34:18.483Z,100148.28
2022-12-25T11:36:48.412Z,100138.31
2022-12-25T11:39:36.206Z,100123.94
2022-12-25T11:42:29.135Z,100105.22
2022-12-25T11:45:10.783Z,100105.91
2022-12-25T11:47:51.625Z,100102.16
2022-12-25T11:50:35.384Z,100088.59
2022-12-25T11:53:41.149Z,100091.69
2022-12-25T11:56:18.751Z,100075.59
2022-12-25T11:58:48.936Z,100066.72
2022-12-25T12:01:32.172Z,100062.81
2022-12-25T12:04:01.571Z,100055.63
2022-12-25T12:06:38.309Z,100050.78
2022-12-25T12:09:23.612Z,100037.03
2022-12-25T12:12:04.232Z,100033.28
2022-12-25T12:14:53.594Z,100036.50
2022-12-25T12:17:20.181Z,100031.22
2022-12-25T12:19:46.971Z,100036.09
2022-12-25T12:22:18.662Z,100018.16
2022-12-25T12:24:46.572Z,100006.69
2022-12-25T12:27:25.259Z,100013.50
2022-12-25T12:29:58.360Z,100016.56
2022-12-25T12:32:44.449Z,100013.78
2022-12-25T12:35:23.963Z,100015.19
2022-12-25T12:37:55.529Z,100008.53
2022-12-25T12:40:41.882Z,100001.88
2022-12-25T12:43:31.861Z,99997.16
2022-12-25T12:46:04.155Z,99981.16
2022-12-25T12:48:38.301Z,99976.50
2022-12-25T12:51:07.903Z,99978.63
2022-12-25T12:53:34.335Z,99986.50
2022-12-25T12:56:19.956Z,99980.78
2022-12-25T12:58:51.191Z,99965.19
2022-12-25T13:01:26.599Z,99947.56
2022-12-25T13:04:17.509Z,99954.63
2022-12-25T13:06:49.247Z,99933.09
2022-12-25T13:09:38.236Z,99924.00
2022-12-25T13:12:08.126Z,99928.34
2022-12-25T13:14:35.473Z,99929.19
2022-12-25T13:17:01.931Z,99941.41
2022-12-25T13:19:29.067Z,99949.34
2022-12-25T13:21:58.465Z,99953.38
2022-12-25T13:24:27.283Z,99965.91
2022-12-25T13:26:53.882Z,99982.06
2022-12-25T13:29:33.013Z,99979.56
2022-12-25T13:32:01.794Z,99984.31
2022-12-25T13:34:41.415Z,99982.50
2022-12-25T13:37:10.583Z,99981.13
2022-12-25T13:39:46.142Z,99994.63
2022-12-25T13:42:16.745Z,99991.28
2022-12-25T13:44:47.329Z,99988.78
2022-12-25T13:47:23.293Z,99981.25
2022-12-25T13:49:51.399Z,99982.66
2022-12-25T13:52:33.272Z,99981.81
2022-12-25T13:55:02.441Z,99973.34
2022-12-25T13:57:38.566Z,99974.75
2022-12-25T14:00:07.214Z,99974.63
2022-12-25T14:02:38.085Z,99976.84
2022-12-25T14:05:37.946Z,99965.03
2022-12-25T14:08:23.006Z,99973.34
2022-12-25T14:10:51.692Z,99991.19
2022-12-25T14:13:20.946Z,99988.53
2022-12-25T14:15:48.529Z,99987.97
2022-12-25T14:18:17.359Z,99967.13
2022-12-25T14:21:12.446Z,99956.56
2022-12-25T14:23:45.493Z,99946.41
2022-12-25T14:26:21.244Z,99952.09
2022-12-25T14:28:49.000Z,99944.59
2022-12-25T14:31:15.945Z,99956.00
2022-12-25T14:33:42.829Z,99945.00
2022-12-25T14:36:13.135Z,99948.63
2022-12-25T14:38:42.457Z,99943.34
2022-12-25T14:41:33.588Z,99949.31
2022-12-25T14:44:02.256Z,99937.09
2022-12-25T14:46:31.452Z,99930.13
2022-12-25T14:49:05.527Z,99926.28
2022-12-25T14:51:33.338Z,99923.63
2022-12-25T14:54:02.919Z,99921.28
2022-12-25T14:56:37.952Z,99924.19
2022-12-25T14:59:05.031Z,99920.84
2022-12-25T15:01:38.800Z,99906.13
2022-12-25T15:04:11.431Z,99914.16
2022-12-25T15:06:53.050Z,99916.81
2022-12-25T15:09:19.610Z,99915.69
2022-12-25T15:11:50.180Z,99916.53
2022-12-25T15:14:16.820Z,99916.28
2022-12-25T15:16:49.457Z,99905.97
2022-12-25T15:19:25.236Z,99893.75
2022-12-25T15:21:53.069Z,99871.25
2022-12-25T15:24:19.570Z,99879.84
2022-12-25T15:26:46.159Z,99875.97
2022-12-25T15:29:12.513Z,99872.34
2022-12-25T15:31:39.661Z,99869.00
2022-12-25T15:34:15.375Z,99877.91
2022-12-25T15:36:41.736Z,99869.28
2022-12-25T15:39:08.175Z,99867.88
2022-12-25T15:41:55.280Z,99869.00
2022-12-25T15:44:21.992Z,99862.22
2022-12-25T15:46:48.411Z,99862.06
2022-12-25T15:49:15.672Z,99845.22
2022-12-25T15:51:43.313Z,99849.56
2022-12-25T15:54:10.586Z,99862.75
2022-12-25T15:56:58.365Z,99865.25
2022-12-25T15:59:24.786Z,99861.22
2022-12-25T16:01:56.782Z,99867.22
2022-12-25T16:04:25.075Z,99873.59
2022-12-25T16:06:52.621Z,99864.28
2022-12-25T16:09:22.603Z,99863.72
2022-12-25T16:11:49.855Z,99852.03
2022-12-25T16:14:16.302Z,99837.06
2022-12-25T16:16:42.716Z,99827.88
2022-12-25T16:19:09.284Z,99830.09
2022-12-25T16:21:46.223Z,99821.47
2022-12-25T16:24:13.970Z,99816.19
2022-12-25T16:26:40.508Z,99830.09
2022-12-25T16:29:07.799Z,99829.53
2022-12-25T16:31:35.711Z,99831.50
2022-12-25T16:34:02.472Z,99826.50
2022-12-25T16:36:28.893Z,99829.53
2022-12-25T16:38:55.320Z,99830.50
2022-12-25T16:41:21.785Z,99838.44
2022-12-25T16:43:48.518Z,99855.63
2022-12-25T16:46:20.611Z,99854.00
2022-12-25T16:48:47.045Z,99862.31
2022-12-25T16:51:16.102Z,99853.41
2022-12-25T16:53:43.349Z,99852.44
2022-12-25T16:56:16.104Z,99842.56
2022-12-25T16:58:44.194Z,99824.78
2022-12-25T17:01:12.161Z,99814.88
2022-12-25T17:03:38.999Z,99812.75
2022-12-25T17:06:14.197Z,99812.06
2022-12-25T17:08:41.535Z,99801.91
2022-12-25T17:11:08.252Z,99791.63
2022-12-25T17:13:34.932Z,99780.06
2022-12-25T17:16:10.737Z,99765.19
2022-12-25T17:18:37.080Z,99766.84
2022-12-25T17:21:03.636Z,99767.97
2022-12-25T17:23:29.970Z,99763.53
2022-12-25T17:26:00.837Z,99746.19
2022-12-25T17:28:27.211Z,99734.78
2022-12-25T17:30:53.606Z,99731.28
2022-12-25T17:33:20.214Z,99731.28
2022-12-25T17:35:46.563Z,99718.25
2022-12-25T17:38:12.926Z,99721.56
2022-12-25T17:40:39.316Z,99713.72
2022-12-25T17:43:05.667Z,99712.59
2022-12-25T17:45:32.084Z,99713.44
2022-12-25T17:47:58.446Z,99698.94
2022-12-25T17:50:25.846Z,99682.50
2022-12-25T17:52:52.897Z,99682.50
2022-12-25T17:55:19.277Z,99683.56
2022-12-25T17:57:45.673Z,99680.25
2022-12-25T18:00:13.334Z,99689.66
2022-12-25T18:02:40.103Z,99691.47
2022-12-25T18:05:07.338Z,99686.88
2022-12-25T18:07:33.807Z,99684.38
2022-12-25T18:10:00.178Z,99687.19
2022-12-25T18:12:26.520Z,99694.81
2022-12-25T18:14:52.880Z,99691.03
2022-12-25T18:17:19.252Z,99680.31
2022-12-25T18:19:45.591Z,99670.44
2022-12-25T18:22:12.028Z,99684.34
2022-12-25T18:24:38.644Z,99666.47
2022-12-25T18:27:05.002Z,99671.72
2022-12-25T18:29:31.516Z,99669.44
2022-12-25T18:31:58.021Z,99665.97
2022-12-25T18:34:24.643Z,99661.81
2022-12-25T18:36:51.294Z,99663.19
2022-12-25T18:39:17.762Z,99659.84
2022-12-25T18:42:02.960Z,99657.50
2022-12-25T18:44:30.433Z,99651.53
2022-12-25T18:46:56.890Z,99653.53
2022-12-25T18:49:23.256Z,99658.13
2022-12-25T18:51:49.694Z,99655.47
2022-12-25T18:54:16.045Z,99659.78
2022-12-25T18:56:42.477Z,99669.06
2022-12-25T18:59:08.895Z,99679.09
2022-12-25T19:01:35.527Z,99661.75
2022-12-25T19:04:05.610Z,99674.97
2022-12-25T19:06:33.286Z,99669.38
2022-12-25T19:08:59.801Z,99674.66
2022-12-25T19:11:26.259Z,99669.06
2022-12-25T19:13:52.624Z,99679.66
2022-12-25T19:16:19.024Z,99671.41
2022-12-25T19:18:45.593Z,99662.63
2022-12-25T19:21:12.045Z,99664.31
2022-12-25T19:23:38.744Z,99672.06
2022-12-25T19:26:06.562Z,99669.81
2022-12-25T19:28:33.042Z,99655.16
2022-12-25T19:31:00.576Z,99655.00
2022-12-25T19:33:27.167Z,99638.84
2022-12-25T19:35:53.620Z,99651.50
2022-12-25T19:38:20.113Z,99637.84
2022-12-25T19:41:00.271Z,99645.91
2022-12-25T19:43:32.240Z,99639.94
2022-12-25T19:45:59.217Z,99652.78
2022-12-25T19:48:25.912Z,99645.69
2022-12-25T19:50:52.786Z,99643.75
2022-12-25T19:53:21.385Z,99645.13
2022-12-25T19:55:47.747Z,99638.50
2022-12-25T19:58:14.449Z,99637.56
2022-12-25T20:00:41.752Z,99629.25
2022-12-25T20:03:09.373Z,99629.44
2022-12-25T20:05:36.190Z,99624.69
2022-12-25T20:08:02.655Z,99621.38
2022-12-25T20:10:29.053Z,99628.03
2022-12-25T20:12:55.772Z,99620.41
2022-12-25T20:15:22.123Z,99628.78
2022-12-25T20:17:48.643Z,99609.97
2022-12-25T20:20:15.066Z,99619.19
2022-12-25T20:22:41.827Z,99606.78
2022-12-25T20:25:10.726Z,99605.88
2022-12-25T20:27:37.154Z,99616.06
2022-12-25T20:30:04.058Z,99612.31
2022-12-25T20:32:30.419Z,99623.03
2022-12-25T20:34:56.841Z,99616.06
2022-12-25T20:37:23.230Z,99612.47
2022-12-25T20:39:49.595Z,99608.81
2022-12-25T20:42:15.942Z,99612.75
2022-12-25T20:44:42.300Z,99608.44
2022-12-25T20:47:08.855Z,99612.31
2022-12-25T20:49:35.401Z,99608.81
2022-12-25T20:52:05.604Z,99620.41
2022-12-25T20:54:32.371Z,99606.34
2022-12-25T20:56:58.797Z,99600.34
2022-12-25T20:59:25.228Z,99601.88
2022-12-25T21:01:51.853Z,99596.59
2022-12-25T21:04:18.603Z,99598.22
2022-12-25T21:06:44.995Z,99589.69
2022-12-25T21:09:11.610Z,99594.69
2022-12-25T21:11:38.100Z,99600.59
2022-12-25T21:14:04.545Z,99593.81
2022-12-25T21:16:32.615Z,99599.44
2022-12-25T21:18:59.256Z,99590.97
2022-12-25T21:21:25.766Z,99592.94
2022-12-25T21:23:55.269Z,99597.63
2022-12-25T21:26:24.122Z,99590.66
2022-12-25T21:28:52.753Z,99585.75
2022-12-25T21:31:19.551Z,99590.66
2022-12-25T21:33:52.023Z,99592.34
2022-12-25T21:36:27.180Z,99596.16
2022-12-25T21:38:59.267Z,99590.34
2022-12-25T21:41:27.473Z,99581.81
2022-12-25T21:43:54.814Z,99582.13
2022-12-25T21:46:21.920Z,99570.53
2022-12-25T21:48:48.721Z,99573.50
2022-12-25T21:51:40.299Z,99573.84
2022-12-25T21:54:07.778Z,99584.41
2022-12-25T21:56:43.081Z,99585.56
2022-12-25T21:59:13.555Z,99587.78
2022-12-25T22:01:40.104Z,99593.72
2022-12-25T22:04:08.894Z,99579.13
2022-12-25T22:06:54.314Z,99581.94
2022-12-25T22:09:21.154Z,99590.41
2022-12-25T22:12:06.372Z,99586.75
2022-12-25T22:14:54.940Z,99593.88
2022-12-25T22:17:42.363Z,99594.00
2022-12-25T22:20:11.757Z,99591.72
2022-12-25T22:22:38.135Z,99585.38
2022-12-25T22:25:06.257Z,99590.16
2022-12-25T22:27:34.847Z,99590.00
2022-12-25T22:30:02.026Z,99580.75
2022-12-25T22:32:28.502Z,99580.41
2022-12-25T22:34:54.981Z,99577.75
2022-12-25T22:37:22.995Z,99577.91
2022-12-25T22:39:49.632Z,99575.28
2022-12-25T22:42:16.373Z,99579.75
2022-12-25T22:44:42.848Z,99574.31
2022-12-25T22:47:09.700Z,99577.16
2022-12-25T22:49:36.061Z,99577.13
2022-12-25T22:52:02.838Z,99581.44
2022-12-25T22:54:31.620Z,99579.75
2022-12-25T22:57:01.598Z,99577.97
2022-12-25T22:59:27.983Z,99574.88
2022-12-25T23:01:54.706Z,99571.22
2022-12-25T23:04:21.642Z,99576.53
2022-12-25T23:06:48.068Z,99583.13
2022-12-25T23:09:22.268Z,99589.72
2022-12-25T23:11:50.980Z,99582.44
2022-12-25T23:14:35.682Z,99574.69
2022-12-25T23:17:02.036Z,99578.47
2022-12-25T23:19:54.331Z,99570.84
2022-12-25T23:22:39.065Z,99584.22
2022-12-25T23:25:32.314Z,99578.44
2022-12-25T23:27:58.880Z,99593.47
2022-12-25T23:30:25.240Z,99588.69
2022-12-25T23:32:51.735Z,99603.44
2022-12-25T23:35:18.103Z,99600.59
2022-12-25T23:37:45.000Z,99599.91
2022-12-25T23:40:11.713Z,99582.34
2022-12-25T23:42:38.094Z,99578.22
2022-12-25T23:45:04.864Z,99589.09
2022-12-25T23:47:31.416Z,99589.25
2022-12-25T23:49:58.164Z,99589.41
2022-12-25T23:52:24.612Z,99599.16
2022-12-25T23:54:51.057Z,99594.84
2022-12-25T23:57:17.430Z,99577.34
2022-12-25T23:59:43.835Z,99572.69
